sensor_id;sensor_type;location;lat;lon;timestamp;temperature;humidity
47604;DHT22;33326;51.116;6.900;2022-09-04T00:01:39;21.00;99.90
47604;DHT22;33326;51.116;6.900;2022-09-04T00:06:51;20.90;99.90
47604;DHT22;33326;51.116;6.900;2022-09-04T00:12:01;20.90;99.90
47604;DHT22;33326;51.116;6.900;2022-09-04T00:17:10;20.80;99.90
47604;DHT22;33326;51.116;6.900;2022-09-04T00:22:26;20.80;99.90
47604;DHT22;33326;51.116;6.900;2022-09-04T00:27:33;20.70;99.90
47604;DHT22;33326;51.116;6.900;2022-09-04T00:32:50;20.70;99.90
47604;DHT22;33326;51.116;6.900;2022-09-04T00:37:57;20.70;99.90
47604;DHT22;33326;51.116;6.900;2022-09-04T00:48:50;20.60;99.90
47604;DHT22;33326;51.116;6.900;2022-09-04T00:59:55;20.50;99.90
47604;DHT22;33326;51.116;6.900;2022-09-04T01:05:06;20.50;99.90
47604;DHT22;33326;51.116;6.900;2022-09-04T01:10:28;20.40;99.90
47604;DHT22;33326;51.116;6.900;2022-09-04T01:15:36;20.40;99.90
47604;DHT22;33326;51.116;6.900;2022-09-04T01:21:05;20.30;99.90
47604;DHT22;33326;51.116;6.900;2022-09-04T01:26:16;20.40;99.90
47604;DHT22;33326;51.116;6.900;2022-09-04T01:31:25;20.30;99.90
47604;DHT22;33326;51.116;6.900;2022-09-04T01:36:36;20.20;99.90
47604;DHT22;33326;51.116;6.900;2022-09-04T01:41:45;20.00;99.90
47604;DHT22;33326;51.116;6.900;2022-09-04T01:46:55;20.10;99.90
47604;DHT22;33326;51.116;6.900;2022-09-04T01:52:11;20.20;99.90
47604;DHT22;33326;51.116;6.900;2022-09-04T01:57:27;20.10;99.90
47604;DHT22;33326;51.116;6.900;2022-09-04T02:02:36;20.20;99.90
47604;DHT22;33326;51.116;6.900;2022-09-04T02:07:45;20.10;99.90
47604;DHT22;33326;51.116;6.900;2022-09-04T02:12:56;20.10;99.90
47604;DHT22;33326;51.116;6.900;2022-09-04T02:18:06;20.00;99.90
47604;DHT22;33326;51.116;6.900;2022-09-04T02:23:17;20.00;99.90
47604;DHT22;33326;51.116;6.900;2022-09-04T02:28:29;20.00;99.90
47604;DHT22;33326;51.116;6.900;2022-09-04T02:33:37;20.00;99.90
47604;DHT22;33326;51.116;6.900;2022-09-04T02:38:49;20.00;99.90
47604;DHT22;33326;51.116;6.900;2022-09-04T02:44:16;19.90;99.90
47604;DHT22;33326;51.116;6.900;2022-09-04T02:49:31;19.90;99.90
47604;DHT22;33326;51.116;6.900;2022-09-04T02:54:49;19.80;99.90
47604;DHT22;33326;51.116;6.900;2022-09-04T03:00:00;19.70;99.90
47604;DHT22;33326;51.116;6.900;2022-09-04T03:05:14;19.70;99.90
47604;DHT22;33326;51.116;6.900;2022-09-04T03:10:19;19.70;99.90
47604;DHT22;33326;51.116;6.900;2022-09-04T03:15:28;19.60;99.90
47604;DHT22;33326;51.116;6.900;2022-09-04T03:20:39;19.60;99.90
47604;DHT22;33326;51.116;6.900;2022-09-04T03:26:17;19.60;99.90
47604;DHT22;33326;51.116;6.900;2022-09-04T03:31:30;19.60;99.90
47604;DHT22;33326;51.116;6.900;2022-09-04T03:36:38;19.50;99.90
47604;DHT22;33326;51.116;6.900;2022-09-04T03:41:49;19.50;99.90
47604;DHT22;33326;51.116;6.900;2022-09-04T03:47:04;19.30;99.90
47604;DHT22;33326;51.116;6.900;2022-09-04T03:52:15;19.40;99.90
47604;DHT22;33326;51.116;6.900;2022-09-04T03:57:35;19.30;99.90
47604;DHT22;33326;51.116;6.900;2022-09-04T04:02:45;19.40;99.90
47604;DHT22;33326;51.116;6.900;2022-09-04T04:08:02;19.40;99.90
47604;DHT22;33326;51.116;6.900;2022-09-04T04:13:24;19.30;99.90
47604;DHT22;33326;51.116;6.900;2022-09-04T04:18:51;19.30;99.90
47604;DHT22;33326;51.116;6.900;2022-09-04T04:24:07;19.40;99.90
47604;DHT22;33326;51.116;6.900;2022-09-04T04:34:56;19.20;99.90
47604;DHT22;33326;51.116;6.900;2022-09-04T04:40:08;19.20;99.90
47604;DHT22;33326;51.116;6.900;2022-09-04T04:45:16;19.10;99.90
47604;DHT22;33326;51.116;6.900;2022-09-04T04:50:44;19.10;99.90
47604;DHT22;33326;51.116;6.900;2022-09-04T04:55:52;19.10;99.90
47604;DHT22;33326;51.116;6.900;2022-09-04T05:01:02;19.00;99.90
47604;DHT22;33326;51.116;6.900;2022-09-04T05:06:12;19.00;99.90
47604;DHT22;33326;51.116;6.900;2022-09-04T05:11:19;19.00;99.90
47604;DHT22;33326;51.116;6.900;2022-09-04T05:16:32;19.00;99.90
47604;DHT22;33326;51.116;6.900;2022-09-04T05:21:39;19.00;99.90
47604;DHT22;33326;51.116;6.900;2022-09-04T05:26:50;19.00;99.90
47604;DHT22;33326;51.116;6.900;2022-09-04T05:31:55;19.00;99.90
47604;DHT22;33326;51.116;6.900;2022-09-04T05:37:08;19.10;99.90
47604;DHT22;33326;51.116;6.900;2022-09-04T05:42:22;19.00;99.90
47604;DHT22;33326;51.116;6.900;2022-09-04T05:47:35;19.00;99.90
47604;DHT22;33326;51.116;6.900;2022-09-04T05:52:59;19.00;99.90
47604;DHT22;33326;51.116;6.900;2022-09-04T05:58:17;19.00;99.90
47604;DHT22;33326;51.116;6.900;2022-09-04T06:09:07;19.00;99.90
47604;DHT22;33326;51.116;6.900;2022-09-04T06:19:44;19.20;99.90
47604;DHT22;33326;51.116;6.900;2022-09-04T06:25:11;19.30;99.90
47604;DHT22;33326;51.116;6.900;2022-09-04T06:30:16;19.40;99.90
47604;DHT22;33326;51.116;6.900;2022-09-04T06:35:39;19.50;99.90
47604;DHT22;33326;51.116;6.900;2022-09-04T06:40:57;19.50;99.90
47604;DHT22;33326;51.116;6.900;2022-09-04T06:46:13;19.60;99.90
47604;DHT22;33326;51.116;6.900;2022-09-04T06:51:25;19.70;99.90
47604;DHT22;33326;51.116;6.900;2022-09-04T06:56:45;19.80;99.90
47604;DHT22;33326;51.116;6.900;2022-09-04T07:01:58;19.80;99.90
47604;DHT22;33326;51.116;6.900;2022-09-04T07:07:09;19.90;99.90
47604;DHT22;33326;51.116;6.900;2022-09-04T07:12:32;20.10;99.90
47604;DHT22;33326;51.116;6.900;2022-09-04T07:17:41;20.30;99.90
47604;DHT22;33326;51.116;6.900;2022-09-04T07:23:07;20.50;99.90
47604;DHT22;33326;51.116;6.900;2022-09-04T07:28:32;20.50;99.90
47604;DHT22;33326;51.116;6.900;2022-09-04T07:33:40;20.70;99.90
47604;DHT22;33326;51.116;6.900;2022-09-04T07:38:46;21.00;99.90
47604;DHT22;33326;51.116;6.900;2022-09-04T07:43:56;21.20;99.90
47604;DHT22;33326;51.116;6.900;2022-09-04T07:49:07;21.40;99.90
47604;DHT22;33326;51.116;6.900;2022-09-04T07:54:37;21.70;99.90
47604;DHT22;33326;51.116;6.900;2022-09-04T08:00:00;22.00;99.90
47604;DHT22;33326;51.116;6.900;2022-09-04T08:05:21;22.20;99.90
47604;DHT22;33326;51.116;6.900;2022-09-04T08:10:27;22.40;99.90
47604;DHT22;33326;51.116;6.900;2022-09-04T08:15:40;22.60;99.90
47604;DHT22;33326;51.116;6.900;2022-09-04T08:20:45;22.90;99.90
47604;DHT22;33326;51.116;6.900;2022-09-04T08:25:59;23.00;99.90
47604;DHT22;33326;51.116;6.900;2022-09-04T08:31:07;23.20;99.90
47604;DHT22;33326;51.116;6.900;2022-09-04T08:36:21;23.30;99.90
47604;DHT22;33326;51.116;6.900;2022-09-04T08:52:46;23.40;99.90
47604;DHT22;33326;51.116;6.900;2022-09-04T08:58:30;23.80;99.90
47604;DHT22;33326;51.116;6.900;2022-09-04T09:15:07;25.00;99.90
47604;DHT22;33326;51.116;6.900;2022-09-04T09:20:28;25.00;99.90
47604;DHT22;33326;51.116;6.900;2022-09-04T09:25:38;25.40;99.90
47604;DHT22;33326;51.116;6.900;2022-09-04T09:42:14;26.20;98.90
47604;DHT22;33326;51.116;6.900;2022-09-04T10:05:01;27.50;96.60
47604;DHT22;33326;51.116;6.900;2022-09-04T10:10:32;27.80;95.00
47604;DHT22;33326;51.116;6.900;2022-09-04T10:15:58;28.20;95.40
47604;DHT22;33326;51.116;6.900;2022-09-04T10:21:49;28.60;94.30
47604;DHT22;33326;51.116;6.900;2022-09-04T10:27:30;28.70;92.80
47604;DHT22;33326;51.116;6.900;2022-09-04T10:38:25;29.00;92.70
47604;DHT22;33326;51.116;6.900;2022-09-04T10:43:42;29.50;91.70
47604;DHT22;33326;51.116;6.900;2022-09-04T10:49:09;29.80;91.60
47604;DHT22;33326;51.116;6.900;2022-09-04T11:00:06;30.50;90.00
47604;DHT22;33326;51.116;6.900;2022-09-04T11:05:23;30.90;90.20
47604;DHT22;33326;51.116;6.900;2022-09-04T11:10:33;31.30;88.10
47604;DHT22;33326;51.116;6.900;2022-09-04T11:15:59;31.30;88.60
47604;DHT22;33326;51.116;6.900;2022-09-04T11:21:31;31.50;87.10
47604;DHT22;33326;51.116;6.900;2022-09-04T11:27:00;31.00;86.50
47604;DHT22;33326;51.116;6.900;2022-09-04T11:37:58;29.10;88.80
47604;DHT22;33326;51.116;6.900;2022-09-04T11:43:14;29.90;88.40
47604;DHT22;33326;51.116;6.900;2022-09-04T11:48:38;30.10;87.30
47604;DHT22;33326;51.116;6.900;2022-09-04T11:54:10;29.90;87.20
47604;DHT22;33326;51.116;6.900;2022-09-04T11:59:47;30.00;86.60
47604;DHT22;33326;51.116;6.900;2022-09-04T12:05:05;31.20;86.00
47604;DHT22;33326;51.116;6.900;2022-09-04T12:10:19;31.50;83.90
47604;DHT22;33326;51.116;6.900;2022-09-04T12:21:24;30.40;84.00
47604;DHT22;33326;51.116;6.900;2022-09-04T12:38:24;29.40;85.90
47604;DHT22;33326;51.116;6.900;2022-09-04T12:43:46;29.30;85.30
47604;DHT22;33326;51.116;6.900;2022-09-04T12:49:02;29.10;85.50
47604;DHT22;33326;51.116;6.900;2022-09-04T12:54:22;28.90;85.50
47604;DHT22;33326;51.116;6.900;2022-09-04T12:59:40;28.90;84.70
47604;DHT22;33326;51.116;6.900;2022-09-04T13:04:53;28.90;86.30
47604;DHT22;33326;51.116;6.900;2022-09-04T13:10:09;28.90;85.80
47604;DHT22;33326;51.116;6.900;2022-09-04T13:15:20;29.00;85.00
47604;DHT22;33326;51.116;6.900;2022-09-04T13:20:31;28.70;84.70
47604;DHT22;33326;51.116;6.900;2022-09-04T13:25:44;28.80;86.60
47604;DHT22;33326;51.116;6.900;2022-09-04T13:30:55;28.80;84.90
47604;DHT22;33326;51.116;6.900;2022-09-04T13:36:13;29.10;85.70
47604;DHT22;33326;51.116;6.900;2022-09-04T13:41:43;29.60;85.90
47604;DHT22;33326;51.116;6.900;2022-09-04T13:46:57;30.60;84.40
47604;DHT22;33326;51.116;6.900;2022-09-04T13:52:05;30.50;81.00
47604;DHT22;33326;51.116;6.900;2022-09-04T13:57:15;30.40;82.80
47604;DHT22;33326;51.116;6.900;2022-09-04T14:02:20;30.50;81.80
47604;DHT22;33326;51.116;6.900;2022-09-04T14:07:27;32.20;84.00
47604;DHT22;33326;51.116;6.900;2022-09-04T14:12:41;35.00;78.50
47604;DHT22;33326;51.116;6.900;2022-09-04T14:17:54;35.70;72.10
47604;DHT22;33326;51.116;6.900;2022-09-04T14:23:07;34.40;72.70
47604;DHT22;33326;51.116;6.900;2022-09-04T14:28:18;34.80;72.10
47604;DHT22;33326;51.116;6.900;2022-09-04T14:33:29;34.60;70.40
47604;DHT22;33326;51.116;6.900;2022-09-04T14:38:54;33.50;71.30
47604;DHT22;33326;51.116;6.900;2022-09-04T14:44:07;32.70;71.50
47604;DHT22;33326;51.116;6.900;2022-09-04T14:49:15;32.60;73.30
47604;DHT22;33326;51.116;6.900;2022-09-04T14:54:24;32.20;73.10
47604;DHT22;33326;51.116;6.900;2022-09-04T14:59:36;31.70;73.10
47604;DHT22;33326;51.116;6.900;2022-09-04T15:04:45;31.20;73.00
47604;DHT22;33326;51.116;6.900;2022-09-04T15:09:49;30.80;74.70
47604;DHT22;33326;51.116;6.900;2022-09-04T15:15:02;30.70;75.20
47604;DHT22;33326;51.116;6.900;2022-09-04T15:20:11;31.90;75.00
47604;DHT22;33326;51.116;6.900;2022-09-04T15:25:42;32.60;77.10
47604;DHT22;33326;51.116;6.900;2022-09-04T15:31:07;33.70;70.60
47604;DHT22;33326;51.116;6.900;2022-09-04T15:36:14;35.00;71.00
47604;DHT22;33326;51.116;6.900;2022-09-04T15:41:23;34.30;70.20
47604;DHT22;33326;51.116;6.900;2022-09-04T15:46:43;33.90;69.40
47604;DHT22;33326;51.116;6.900;2022-09-04T15:51:50;33.70;70.40
47604;DHT22;33326;51.116;6.900;2022-09-04T15:56:58;33.80;69.30
47604;DHT22;33326;51.116;6.900;2022-09-04T16:02:08;33.30;70.60
47604;DHT22;33326;51.116;6.900;2022-09-04T16:07:38;34.90;68.50
47604;DHT22;33326;51.116;6.900;2022-09-04T16:12:50;35.50;66.80
47604;DHT22;33326;51.116;6.900;2022-09-04T16:17:55;34.80;67.10
47604;DHT22;33326;51.116;6.900;2022-09-04T16:23:00;34.10;66.80
47604;DHT22;33326;51.116;6.900;2022-09-04T16:28:05;33.20;67.00
47604;DHT22;33326;51.116;6.900;2022-09-04T16:33:21;32.70;68.10
47604;DHT22;33326;51.116;6.900;2022-09-04T16:38:28;32.40;68.90
47604;DHT22;33326;51.116;6.900;2022-09-04T16:43:32;32.00;68.80
47604;DHT22;33326;51.116;6.900;2022-09-04T16:48:42;31.90;69.00
47604;DHT22;33326;51.116;6.900;2022-09-04T16:53:49;31.40;69.40
47604;DHT22;33326;51.116;6.900;2022-09-04T16:58:53;30.90;69.40
47604;DHT22;33326;51.116;6.900;2022-09-04T17:04:08;30.50;70.30
47604;DHT22;33326;51.116;6.900;2022-09-04T17:09:18;30.20;71.40
47604;DHT22;33326;51.116;6.900;2022-09-04T17:14:27;29.80;71.40
47604;DHT22;33326;51.116;6.900;2022-09-04T17:19:33;29.60;72.30
47604;DHT22;33326;51.116;6.900;2022-09-04T17:24:40;29.40;72.90
47604;DHT22;33326;51.116;6.900;2022-09-04T17:29:46;29.20;73.70
47604;DHT22;33326;51.116;6.900;2022-09-04T17:34:58;29.00;73.60
47604;DHT22;33326;51.116;6.900;2022-09-04T17:40:08;28.70;73.50
47604;DHT22;33326;51.116;6.900;2022-09-04T17:45:19;28.50;74.50
47604;DHT22;33326;51.116;6.900;2022-09-04T17:50:28;28.30;74.10
47604;DHT22;33326;51.116;6.900;2022-09-04T17:55:34;28.10;74.80
47604;DHT22;33326;51.116;6.900;2022-09-04T18:00:48;27.90;75.20
47604;DHT22;33326;51.116;6.900;2022-09-04T18:05:58;27.80;75.70
47604;DHT22;33326;51.116;6.900;2022-09-04T18:11:08;27.50;76.70
47604;DHT22;33326;51.116;6.900;2022-09-04T18:16:42;27.20;78.60
47604;DHT22;33326;51.116;6.900;2022-09-04T18:21:53;27.00;79.40
47604;DHT22;33326;51.116;6.900;2022-09-04T18:27:00;26.70;79.50
47604;DHT22;33326;51.116;6.900;2022-09-04T18:32:07;26.60;79.80
47604;DHT22;33326;51.116;6.900;2022-09-04T18:37:17;26.40;81.10
47604;DHT22;33326;51.116;6.900;2022-09-04T18:42:29;26.20;81.70
47604;DHT22;33326;51.116;6.900;2022-09-04T18:47:37;26.00;82.40
47604;DHT22;33326;51.116;6.900;2022-09-04T18:52:48;25.80;83.00
47604;DHT22;33326;51.116;6.900;2022-09-04T18:58:13;25.70;83.80
47604;DHT22;33326;51.116;6.900;2022-09-04T19:03:23;25.50;83.70
47604;DHT22;33326;51.116;6.900;2022-09-04T19:08:33;25.40;84.10
47604;DHT22;33326;51.116;6.900;2022-09-04T19:13:43;25.30;84.80
47604;DHT22;33326;51.116;6.900;2022-09-04T19:18:49;25.10;85.20
47604;DHT22;33326;51.116;6.900;2022-09-04T19:23:55;25.00;86.10
47604;DHT22;33326;51.116;6.900;2022-09-04T19:29:08;24.90;86.70
47604;DHT22;33326;51.116;6.900;2022-09-04T19:34:18;24.80;87.40
47604;DHT22;33326;51.116;6.900;2022-09-04T19:39:28;24.80;87.60
47604;DHT22;33326;51.116;6.900;2022-09-04T19:44:37;24.80;87.80
47604;DHT22;33326;51.116;6.900;2022-09-04T19:49:47;24.80;88.00
47604;DHT22;33326;51.116;6.900;2022-09-04T19:54:53;24.80;88.60
47604;DHT22;33326;51.116;6.900;2022-09-04T20:00:04;24.60;89.20
47604;DHT22;33326;51.116;6.900;2022-09-04T20:05:17;24.60;89.70
47604;DHT22;33326;51.116;6.900;2022-09-04T20:10:26;24.40;90.10
47604;DHT22;33326;51.116;6.900;2022-09-04T20:15:34;24.20;90.60
47604;DHT22;33326;51.116;6.900;2022-09-04T20:20:46;24.00;91.00
47604;DHT22;33326;51.116;6.900;2022-09-04T20:25:59;23.90;92.10
47604;DHT22;33326;51.116;6.900;2022-09-04T20:31:16;23.70;92.70
47604;DHT22;33326;51.116;6.900;2022-09-04T20:36:28;23.70;93.00
47604;DHT22;33326;51.116;6.900;2022-09-04T20:41:42;23.60;93.20
47604;DHT22;33326;51.116;6.900;2022-09-04T20:46:51;23.50;94.00
47604;DHT22;33326;51.116;6.900;2022-09-04T20:51:57;23.50;94.40
47604;DHT22;33326;51.116;6.900;2022-09-04T20:57:05;23.40;94.40
47604;DHT22;33326;51.116;6.900;2022-09-04T21:02:18;23.30;95.20
47604;DHT22;33326;51.116;6.900;2022-09-04T21:07:27;23.30;95.60
47604;DHT22;33326;51.116;6.900;2022-09-04T21:12:36;23.20;95.80
47604;DHT22;33326;51.116;6.900;2022-09-04T21:17:58;23.20;96.20
47604;DHT22;33326;51.116;6.900;2022-09-04T21:23:36;23.20;96.40
47604;DHT22;33326;51.116;6.900;2022-09-04T21:29:09;23.10;97.10
47604;DHT22;33326;51.116;6.900;2022-09-04T21:34:32;23.00;97.50
47604;DHT22;33326;51.116;6.900;2022-09-04T21:39:51;22.90;97.60
47604;DHT22;33326;51.116;6.900;2022-09-04T21:45:24;22.80;98.10
47604;DHT22;33326;51.116;6.900;2022-09-04T21:50:56;22.80;98.60
47604;DHT22;33326;51.116;6.900;2022-09-04T21:56:31;22.70;98.70
47604;DHT22;33326;51.116;6.900;2022-09-04T22:01:47;22.70;99.30
47604;DHT22;33326;51.116;6.900;2022-09-04T22:06:56;22.60;99.30
47604;DHT22;33326;51.116;6.900;2022-09-04T22:12:06;22.60;99.20
47604;DHT22;33326;51.116;6.900;2022-09-04T22:17:28;22.50;99.50
47604;DHT22;33326;51.116;6.900;2022-09-04T22:28:43;22.50;99.90
47604;DHT22;33326;51.116;6.900;2022-09-04T22:34:15;22.30;99.90
47604;DHT22;33326;51.116;6.900;2022-09-04T22:39:45;22.30;99.90
47604;DHT22;33326;51.116;6.900;2022-09-04T22:45:03;22.20;99.90
47604;DHT22;33326;51.116;6.900;2022-09-04T22:50:38;22.10;99.90
47604;DHT22;33326;51.116;6.900;2022-09-04T22:55:53;22.00;99.90
47604;DHT22;33326;51.116;6.900;2022-09-04T23:01:15;22.00;99.90
47604;DHT22;33326;51.116;6.900;2022-09-04T23:06:35;22.00;99.90
47604;DHT22;33326;51.116;6.900;2022-09-04T23:11:50;21.90;99.90
47604;DHT22;33326;51.116;6.900;2022-09-04T23:17:17;21.90;99.90
47604;DHT22;33326;51.116;6.900;2022-09-04T23:28:05;21.80;99.90
47604;DHT22;33326;51.116;6.900;2022-09-04T23:33:49;21.70;99.90
47604;DHT22;33326;51.116;6.900;2022-09-04T23:39:20;21.70;99.90
47604;DHT22;33326;51.116;6.900;2022-09-04T23:49:58;21.50;99.90
47604;DHT22;33326;51.116;6.900;2022-09-04T23:55:19;21.50;99.90
